Time;durP1;ratioP1;P1;durP2;ratioP2;P2;SDS_P1;SDS_P2;PMS_P1;PMS_P2;Temp;Humidity;BMP_temperature;BMP_pressure;BME280_temperature;BME280_humidity;BME280_pressure;Samples;Min_cycle;Max_cycle;Signal;HPM_P1;HPM_P2
2021/12/31 00:01:24;;;;;;;7.55;4.05;;;;;;;12.84;87.18;101642.69;10476093;28;20044;-85
2021/12/31 00:06:26;;;;;;;10.80;3.78;;;;;;;12.87;86.80;101634.13;10473563;28;20078;-86
2021/12/31 00:11:28;;;;;;;6.50;3.65;;;;;;;12.82;87.34;101649.53;10482113;28;20051;-87
2021/12/31 00:16:30;;;;;;;7.75;3.58;;;;;;;12.76;88.08;101653.66;10476422;28;20055;-85
2021/12/31 00:21:36;;;;;;;8.38;3.55;;;;;;;12.78;87.32;101657.13;10467951;28;20043;-87
2021/12/31 00:26:38;;;;;;;9.75;3.42;;;;;;;12.80;87.32;101642.56;10482428;28;20094;-85
2021/12/31 00:31:40;;;;;;;8.82;3.67;;;;;;;12.89;86.11;101640.25;10466333;28;20097;-86
2021/12/31 00:36:47;;;;;;;9.82;3.35;;;;;;;12.85;86.73;101633.22;10456434;28;20044;-88
2021/12/31 00:41:49;;;;;;;5.68;2.90;;;;;;;12.80;86.73;101645.13;10453684;28;20110;-87
2021/12/31 00:46:51;;;;;;;9.25;2.80;;;;;;;12.85;86.63;101648.72;10481943;28;20064;-85
2021/12/31 00:51:55;;;;;;;7.80;2.92;;;;;;;12.84;86.47;101662.50;10463160;28;20067;-85
2021/12/31 00:57:02;;;;;;;6.47;2.55;;;;;;;12.92;85.75;101666.16;10458576;28;20040;-85
2021/12/31 01:02:05;;;;;;;6.47;2.60;;;;;;;12.88;85.70;101664.34;10450291;28;20079;-86
2021/12/31 01:07:08;;;;;;;7.78;2.58;;;;;;;12.93;85.59;101667.94;10461880;28;20044;-87
2021/12/31 01:12:11;;;;;;;7.38;2.50;;;;;;;12.89;85.34;101671.28;10471655;28;20044;-86
2021/12/31 01:17:15;;;;;;;6.30;2.90;;;;;;;13.06;84.24;101673.47;10463361;28;20041;-86
2021/12/31 01:22:26;;;;;;;6.70;2.70;;;;;;;12.99;84.50;101678.44;10467162;28;20138;-85
2021/12/31 01:27:32;;;;;;;9.90;2.50;;;;;;;12.89;85.05;101683.31;10478395;28;20045;-84
2021/12/31 01:32:34;;;;;;;7.93;2.53;;;;;;;12.90;84.70;101682.47;10458116;28;20052;-86
2021/12/31 01:37:36;;;;;;;7.55;2.40;;;;;;;12.89;84.70;101680.72;10473870;28;20048;-86
2021/12/31 01:42:38;;;;;;;7.30;2.20;;;;;;;12.89;84.65;101681.63;10484233;28;20041;-86
2021/12/31 01:52:57;;;;;;;6.00;2.45;;;;;;;13.01;83.68;101687.13;10468410;28;20049;-86
2021/12/31 01:58:01;;;;;;;7.25;2.15;;;;;;;12.98;83.93;101676.72;10474488;28;20493;-86
2021/12/31 02:03:05;;;;;;;4.70;2.00;;;;;;;12.94;84.30;101689.50;10494701;28;20094;-86
2021/12/31 02:08:07;;;;;;;6.10;1.92;;;;;;;12.90;84.35;101688.53;10482059;28;20437;-86
2021/12/31 02:13:09;;;;;;;6.50;2.40;;;;;;;12.98;83.54;101683.59;10485352;28;20059;-85
2021/12/31 02:18:11;;;;;;;7.93;1.95;;;;;;;12.96;83.67;101688.72;10481576;28;20049;-86
2021/12/31 02:23:15;;;;;;;7.60;2.55;;;;;;;12.99;83.35;101688.78;10475447;28;20052;-85
2021/12/31 02:28:20;;;;;;;5.18;2.10;;;;;;;12.96;83.91;101688.72;10445851;28;20114;-85
2021/12/31 02:33:22;;;;;;;4.47;2.08;;;;;;;12.93;83.67;101678.28;10480781;28;20433;-85
2021/12/31 02:38:25;;;;;;;6.07;2.10;;;;;;;12.95;83.73;101676.63;10459887;28;20045;-83
2021/12/31 02:43:26;;;;;;;7.28;2.10;;;;;;;12.99;83.19;101678.44;10494998;28;20048;-83
2021/12/31 02:48:28;;;;;;;8.15;2.05;;;;;;;13.00;82.95;101680.19;10475379;28;20036;-87
2021/12/31 02:53:41;;;;;;;4.85;2.22;;;;;;;12.98;82.66;101678.41;10490059;28;20056;-87
2021/12/31 02:58:44;;;;;;;8.90;1.95;;;;;;;13.00;82.38;101663.81;10486340;28;20559;-85
2021/12/31 03:03:48;;;;;;;4.57;2.03;;;;;;;13.11;81.72;101666.69;10478044;28;20052;-84
2021/12/31 03:08:52;;;;;;;7.60;2.30;;;;;;;13.01;82.46;101669.03;10478048;28;20049;-84
2021/12/31 03:13:55;;;;;;;6.68;2.10;;;;;;;13.02;82.17;101668.19;10474848;28;20047;-86
2021/12/31 03:18:58;;;;;;;6.43;1.73;;;;;;;12.98;81.97;101663.78;10493910;28;20546;-87
2021/12/31 03:24:00;;;;;;;6.28;2.00;;;;;;;12.95;82.18;101655.94;10502041;28;20136;-86
2021/12/31 03:29:04;;;;;;;7.03;1.90;;;;;;;12.97;81.83;101649.09;10467604;28;20049;-86
2021/12/31 03:34:06;;;;;;;4.07;1.90;;;;;;;12.95;81.60;101661.09;10488333;28;20048;-84
2021/12/31 03:39:09;;;;;;;8.07;2.20;;;;;;;12.87;82.56;101652.25;10487393;28;20044;-89
2021/12/31 03:44:11;;;;;;;8.13;1.90;;;;;;;12.84;82.50;101652.16;10470792;28;20083;-86
2021/12/31 03:49:13;;;;;;;6.75;2.17;;;;;;;12.75;82.94;101646.72;10471942;28;20125;-86
2021/12/31 03:54:15;;;;;;;7.38;2.15;;;;;;;12.79;82.53;101638.22;10471592;28;20499;-88
2021/12/31 03:59:16;;;;;;;6.47;1.98;;;;;;;12.74;82.75;101644.97;10490270;28;20032;-87
2021/12/31 04:04:18;;;;;;;3.53;1.80;;;;;;;12.68;83.05;101641.38;10478376;28;20063;-87
2021/12/31 04:09:20;;;;;;;6.20;2.05;;;;;;;12.66;82.98;101642.16;10496980;28;20054;-86
2021/12/31 04:14:22;;;;;;;6.47;2.10;;;;;;;12.59;83.00;101638.53;10470628;28;20107;-87
2021/12/31 04:19:24;;;;;;;9.80;2.47;;;;;;;12.53;83.42;101636.63;10448448;28;20438;-86
2021/12/31 04:29:30;;;;;;;6.40;2.20;;;;;;;12.45;84.18;101632.06;10496825;28;20052;-87
2021/12/31 04:34:33;;;;;;;5.13;2.05;;;;;;;12.43;83.70;101639.78;10445549;28;20140;-85
2021/12/31 04:39:34;;;;;;;6.53;2.30;;;;;;;12.48;83.56;101647.66;10442076;28;20068;-86
2021/12/31 04:44:36;;;;;;;12.25;2.65;;;;;;;12.44;83.96;101640.66;10468457;28;20044;-86
2021/12/31 04:49:38;;;;;;;8.52;2.25;;;;;;;12.35;83.94;101636.97;10466584;28;20077;-85
2021/12/31 04:54:40;;;;;;;8.13;2.40;;;;;;;12.46;83.37;101634.69;10482989;28;20132;-86
2021/12/31 04:59:41;;;;;;;8.38;2.40;;;;;;;12.34;83.96;101627.44;10470499;28;20040;-87
2021/12/31 05:04:45;;;;;;;8.60;2.58;;;;;;;12.34;84.36;101634.34;10465213;28;20404;-86
2021/12/31 05:09:47;;;;;;;8.05;2.40;;;;;;;12.41;83.44;101630.22;10469978;28;20389;-87
2021/12/31 05:14:49;;;;;;;8.73;2.30;;;;;;;12.40;83.50;101624.19;10464630;28;20055;-88
2021/12/31 05:19:51;;;;;;;6.50;2.72;;;;;;;12.42;83.49;101616.47;10489695;28;20052;-86
2021/12/31 05:24:52;;;;;;;16.58;2.85;;;;;;;12.40;83.86;101620.72;10476866;28;20037;-87
2021/12/31 05:29:54;;;;;;;6.72;2.60;;;;;;;12.44;83.13;101604.47;10459331;28;20033;-87
2021/12/31 05:34:56;;;;;;;9.13;2.20;;;;;;;12.43;83.31;101613.06;10469987;28;20116;-83
2021/12/31 05:39:58;;;;;;;8.20;2.50;;;;;;;12.54;83.02;101611.69;10484005;28;20124;-85
2021/12/31 05:45:00;;;;;;;6.43;2.33;;;;;;;12.53;82.77;101595.28;10462527;28;20057;-88
2021/12/31 05:50:04;;;;;;;7.15;2.83;;;;;;;12.55;82.51;101587.56;10449025;28;20102;-87
2021/12/31 05:55:07;;;;;;;4.88;2.40;;;;;;;12.41;83.37;101583.69;10430503;28;20084;-86
2021/12/31 06:00:09;;;;;;;7.20;2.70;;;;;;;12.43;83.27;101584.63;10446824;28;20045;-88
2021/12/31 06:05:12;;;;;;;9.93;2.72;;;;;;;12.47;82.88;101579.59;10471508;28;20098;-87
2021/12/31 06:10:14;;;;;;;10.15;2.80;;;;;;;12.36;83.38;101568.94;10436764;28;20132;-87
2021/12/31 06:15:17;;;;;;;8.23;2.58;;;;;;;12.50;82.28;101573.63;10447164;28;20041;-85
2021/12/31 06:20:20;;;;;;;5.25;2.40;;;;;;;12.47;82.48;101578.72;10440360;28;20076;-88
2021/12/31 06:25:22;;;;;;;7.22;2.65;;;;;;;12.38;82.68;101584.50;10470081;28;20052;-89
2021/12/31 06:30:23;;;;;;;6.65;2.50;;;;;;;12.55;81.49;101579.78;10488195;28;20105;-87
2021/12/31 06:35:25;;;;;;;7.05;2.05;;;;;;;12.53;81.62;101589.25;10464721;28;20136;-85
2021/12/31 06:40:29;;;;;;;5.78;2.22;;;;;;;12.50;81.37;101587.44;10439497;28;20047;-87
2021/12/31 06:45:31;;;;;;;5.18;2.00;;;;;;;12.52;81.51;101582.31;10476510;28;20052;-87
2021/12/31 06:50:33;;;;;;;8.05;2.65;;;;;;;12.59;80.70;101563.56;10490567;28;20044;-87
2021/12/31 06:55:37;;;;;;;7.20;2.90;;;;;;;12.64;80.13;101561.97;10440052;28;20063;-87
2021/12/31 07:00:38;;;;;;;8.27;2.50;;;;;;;12.62;79.84;101573.09;10485859;28;20547;-88
2021/12/31 07:05:44;;;;;;;6.43;2.00;;;;;;;12.55;80.08;101561.69;10465004;28;20049;-84
2021/12/31 07:10:46;;;;;;;3.90;1.95;;;;;;;12.42;80.50;101557.91;10455385;28;20469;-84
2021/12/31 07:15:51;;;;;;;4.75;2.15;;;;;;;12.31;80.55;101562.78;10468924;28;20080;-85
2021/12/31 07:20:53;;;;;;;6.70;2.60;;;;;;;12.21;80.66;101571.06;10477432;28;20463;-88
2021/12/31 07:25:55;;;;;;;6.05;1.90;;;;;;;12.31;79.73;101567.94;10489033;28;20040;-86
2021/12/31 07:30:56;;;;;;;5.95;2.03;;;;;;;12.24;80.16;101552.19;10480534;28;20053;-84
2021/12/31 07:36:00;;;;;;;6.97;2.80;;;;;;;12.21;80.02;101545.25;10499069;28;20097;-85
2021/12/31 07:41:05;;;;;;;5.95;2.20;;;;;;;12.04;80.95;101565.41;10473724;28;20566;-89
2021/12/31 07:46:08;;;;;;;9.07;1.75;;;;;;;12.12;80.15;101565.63;10490270;28;20133;-87
2021/12/31 07:51:11;;;;;;;4.63;1.77;;;;;;;12.00;80.63;101581.63;10465912;28;20110;-84
2021/12/31 07:56:14;;;;;;;5.85;1.65;;;;;;;11.98;80.37;101573.84;10483274;28;20084;-85
2021/12/31 08:01:20;;;;;;;6.93;1.98;;;;;;;11.99;80.20;101577.31;10483248;28;20643;-86
2021/12/31 08:06:22;;;;;;;4.20;2.05;;;;;;;11.99;80.07;101585.91;10496264;28;20502;-83
2021/12/31 08:11:24;;;;;;;2.95;1.60;;;;;;;11.92;80.27;101599.44;10483099;28;20037;-85
2021/12/31 08:16:26;;;;;;;5.15;1.80;;;;;;;11.99;80.08;101608.31;10500444;28;20048;-85
2021/12/31 08:21:28;;;;;;;4.40;1.70;;;;;;;11.98;79.96;101619.47;10480084;28;20055;-84
2021/12/31 08:26:30;;;;;;;7.70;2.08;;;;;;;11.99;79.99;101605.72;10481109;28;20052;-87
2021/12/31 08:31:31;;;;;;;5.00;1.90;;;;;;;12.04;79.10;101614.47;10465410;28;20071;-83
2021/12/31 08:36:35;;;;;;;4.47;1.80;;;;;;;11.97;79.60;101597.91;10455086;28;20052;-85
2021/12/31 08:41:38;;;;;;;4.63;1.60;;;;;;;12.04;78.76;101592.09;10476509;28;20036;-85
2021/12/31 08:46:49;;;;;;;6.38;1.90;;;;;;;11.98;79.00;101599.66;10468450;28;20093;-84
2021/12/31 08:51:51;;;;;;;4.63;1.70;;;;;;;12.01;79.12;101610.09;10452042;28;20044;-83
2021/12/31 08:57:00;;;;;;;5.90;1.80;;;;;;;11.95;79.47;101609.84;10467259;28;20055;-87
2021/12/31 09:02:01;;;;;;;3.63;1.67;;;;;;;12.01;79.20;101610.09;10478576;28;20083;-86
2021/12/31 09:07:03;;;;;;;6.03;2.00;;;;;;;12.00;79.26;101622.94;10427912;28;20059;-84
2021/12/31 09:12:07;;;;;;;7.28;2.25;;;;;;;11.93;79.73;101614.09;10469149;28;20047;-88
2021/12/31 09:17:09;;;;;;;4.70;2.10;;;;;;;11.98;79.42;101603.97;10462628;28;20139;-87
2021/12/31 09:22:11;;;;;;;4.93;1.67;;;;;;;12.03;78.95;101608.41;10447974;28;20098;-85
2021/12/31 09:27:13;;;;;;;6.25;2.10;;;;;;;11.91;79.75;101605.44;10447990;28;20055;-87
2021/12/31 09:32:20;;;;;;;5.93;2.40;;;;;;;11.86;79.84;101596.66;10457674;28;20033;-86
2021/12/31 09:37:23;;;;;;;6.70;1.98;;;;;;;11.89;79.43;101592.47;10465879;28;20048;-87
2021/12/31 09:42:24;;;;;;;6.35;2.15;;;;;;;11.81;80.77;101611.13;10454586;28;20060;-87
2021/12/31 09:47:26;;;;;;;5.15;2.28;;;;;;;11.94;79.60;101610.69;10484749;28;20503;-88
2021/12/31 09:52:30;;;;;;;4.32;2.05;;;;;;;11.81;80.79;101631.75;10456274;28;20049;-86
2021/12/31 09:57:32;;;;;;;7.85;2.30;;;;;;;11.88;80.05;101628.56;10449284;28;20053;-85
2021/12/31 10:02:36;;;;;;;5.50;2.38;;;;;;;11.86;80.53;101630.22;10431783;28;20094;-87
2021/12/31 10:07:42;;;;;;;5.82;2.05;;;;;;;11.96;79.38;101627.09;10470385;28;20056;-88
2021/12/31 10:12:52;;;;;;;3.10;2.00;;;;;;;11.90;80.31;101648.47;10451272;28;20443;-86
2021/12/31 10:17:54;;;;;;;7.70;2.20;;;;;;;12.05;79.41;101655.84;10450295;28;20048;-85
2021/12/31 10:23:19;;;;;;;5.72;2.20;;;;;;;12.07;79.79;101650.72;10449478;28;20058;-88
2021/12/31 10:28:21;;;;;;;5.15;1.90;;;;;;;12.06;79.71;101661.91;10455848;28;20045;-87
2021/12/31 10:33:43;;;;;;;7.25;2.10;;;;;;;12.05;79.92;101662.72;10459700;28;20059;-85
2021/12/31 10:38:46;;;;;;;5.70;2.30;;;;;;;12.06;79.37;101655.00;10484422;28;20610;-83
2021/12/31 10:44:01;;;;;;;5.18;2.17;;;;;;;12.01;79.55;101633.34;10452908;28;20049;-86
2021/12/31 10:49:09;;;;;;;5.65;1.98;;;;;;;12.04;79.03;101630.84;10428749;28;20102;-85
2021/12/31 10:54:48;;;;;;;6.30;2.03;;;;;;;11.98;79.64;101617.72;10446855;28;20057;-86
2021/12/31 10:59:50;;;;;;;4.35;2.45;;;;;;;11.95;80.02;101635.66;10457213;28;20127;-86
2021/12/31 11:04:54;;;;;;;5.93;2.45;;;;;;;12.00;79.74;101621.25;10454687;28;20262;-85
2021/12/31 11:09:57;;;;;;;4.45;2.00;;;;;;;12.10;79.51;101606.91;10457971;28;20049;-86
2021/12/31 11:14:59;;;;;;;5.93;2.53;;;;;;;12.14;79.91;101595.84;10440540;28;20049;-85
2021/12/31 11:20:03;;;;;;;9.05;2.28;;;;;;;12.15;79.44;101578.66;10463327;28;20548;-87
2021/12/31 11:25:25;;;;;;;6.95;2.63;;;;;;;12.17;79.39;101589.91;10486441;28;20105;-85
2021/12/31 11:30:34;;;;;;;11.05;2.40;;;;;;;12.13;79.41;101572.56;10468971;28;20136;-88
2021/12/31 11:36:06;;;;;;;4.05;2.50;;;;;;;12.16;79.42;101580.41;10458106;28;20123;-84
2021/12/31 11:41:23;;;;;;;6.32;2.58;;;;;;;12.11;79.18;101575.09;10474228;28;20560;-85
2021/12/31 11:46:30;;;;;;;5.15;2.72;;;;;;;12.16;79.50;101583.00;10464342;28;20083;-88
2021/12/31 11:51:36;;;;;;;6.68;2.88;;;;;;;12.09;79.78;101550.06;10482243;28;20052;-87
2021/12/31 11:56:45;;;;;;;3.03;2.10;;;;;;;12.09;80.15;101544.88;10473355;28;20099;-87
2021/12/31 12:01:52;;;;;;;10.88;2.97;;;;;;;12.09;80.22;101543.16;10466340;28;20052;-87
2021/12/31 12:07:02;;;;;;;8.07;2.60;;;;;;;12.13;80.22;101533.81;10496819;28;20029;-87
2021/12/31 12:12:05;;;;;;;6.65;2.45;;;;;;;12.49;78.96;101538.28;10463360;28;20060;-85
2021/12/31 12:17:28;;;;;;;6.68;2.30;;;;;;;12.61;78.90;101540.31;10486639;28;20507;-85
2021/12/31 12:22:50;;;;;;;7.28;2.63;;;;;;;12.78;77.30;101538.19;10491752;28;20046;-87
2021/12/31 12:27:56;;;;;;;6.25;2.30;;;;;;;12.70;78.49;101518.19;10483340;28;20056;-85
2021/12/31 12:38:12;;;;;;;5.50;2.47;;;;;;;12.46;81.27;101514.94;10479654;28;20071;-90
2021/12/31 12:43:19;;;;;;;5.25;2.70;;;;;;;12.66;79.51;101508.59;10460629;28;20056;-87
2021/12/31 12:48:34;;;;;;;5.13;2.75;;;;;;;12.61;79.49;101512.78;10471576;28;20132;-85
2021/12/31 12:53:43;;;;;;;5.88;2.42;;;;;;;12.73;79.20;101516.53;10465713;28;20075;-86
2021/12/31 12:58:54;;;;;;;4.63;2.00;;;;;;;13.04;77.16;101522.50;10466479;28;20040;-85
2021/12/31 13:03:58;;;;;;;6.28;2.70;;;;;;;12.95;78.07;101536.09;10489685;28;20052;-84
2021/12/31 13:09:07;;;;;;;9.32;3.05;;;;;;;12.90;77.89;101520.44;10465906;28;20141;-86
2021/12/31 13:14:14;;;;;;;;;;;;;;;12.93;78.80;101548.09;10496760;28;20053;-86
2021/12/31 13:19:16;;;;;;;8.13;3.17;;;;;;;12.81;79.11;101559.84;10510101;28;19924;-84
2021/12/31 13:24:20;;;;;;;6.38;3.22;;;;;;;12.74;79.52;101577.75;10495148;28;20044;-83
2021/12/31 13:29:33;;;;;;;5.50;3.20;;;;;;;12.58;80.40;101585.06;10476283;28;20045;-85
2021/12/31 13:34:47;;;;;;;5.75;3.45;;;;;;;12.57;80.13;101591.06;10477907;28;20053;-87
2021/12/31 13:39:50;;;;;;;7.00;3.00;;;;;;;12.62;79.73;101604.13;10465786;28;20558;-86
2021/12/31 13:44:51;;;;;;;9.13;3.60;;;;;;;12.61;80.17;101623.06;10456028;28;20484;-87
2021/12/31 13:49:56;;;;;;;6.88;3.45;;;;;;;12.61;80.15;101623.06;10473394;28;20094;-84
2021/12/31 13:55:17;;;;;;;6.60;2.90;;;;;;;12.58;80.25;101629.00;10478205;28;20048;-84
2021/12/31 14:00:24;;;;;;;6.88;2.90;;;;;;;12.77;79.32;101638.19;10463864;28;20047;-85
2021/12/31 14:05:27;;;;;;;8.68;3.15;;;;;;;12.84;79.32;101636.66;10473683;28;20458;-86
2021/12/31 14:10:33;;;;;;;7.22;3.00;;;;;;;12.83;79.17;101638.34;10482562;28;20048;-84
2021/12/31 14:15:42;;;;;;;7.70;3.15;;;;;;;12.72;80.00;101644.03;10490711;28;20044;-84
2021/12/31 14:20:45;;;;;;;7.73;3.27;;;;;;;12.64;80.81;101649.00;10481562;28;20119;-85
2021/12/31 14:25:47;;;;;;;6.65;3.17;;;;;;;12.62;80.97;101643.75;10463750;28;20136;-86
2021/12/31 14:30:49;;;;;;;6.82;3.47;;;;;;;12.63;80.36;101652.41;10459267;28;20045;-84
2021/12/31 14:35:53;;;;;;;8.00;3.60;;;;;;;12.62;80.78;101664.44;10477016;28;20045;-84
2021/12/31 14:41:02;;;;;;;11.60;4.13;;;;;;;12.59;80.51;101666.06;10446037;28;20140;-85
2021/12/31 14:46:04;;;;;;;10.40;4.17;;;;;;;12.54;80.84;101665.97;10472930;28;20051;-84
2021/12/31 14:51:06;;;;;;;8.48;4.32;;;;;;;12.53;81.42;101666.78;10467505;28;20480;-84
2021/12/31 14:56:09;;;;;;;10.73;4.40;;;;;;;12.51;81.11;101679.63;10466519;28;20080;-83
2021/12/31 15:01:11;;;;;;;9.80;4.85;;;;;;;12.45;81.64;101696.69;10473024;28;20052;-84
2021/12/31 15:06:13;;;;;;;9.43;5.35;;;;;;;12.40;82.25;101691.38;10464988;28;20392;-85
2021/12/31 15:11:16;;;;;;;9.93;5.50;;;;;;;12.36;82.86;101697.28;10453361;28;20052;-85
2021/12/31 15:16:18;;;;;;;15.38;6.10;;;;;;;12.30;83.43;101707.41;10460410;28;20506;-84
2021/12/31 15:21:21;;;;;;;13.40;6.10;;;;;;;12.24;84.29;101721.03;10454074;28;20036;-82
2021/12/31 15:26:25;;;;;;;13.73;6.97;;;;;;;12.24;83.92;101723.59;10465110;28;20136;-85
2021/12/31 15:31:27;;;;;;;14.27;6.60;;;;;;;12.09;85.52;101730.84;10464265;28;20131;-84
2021/12/31 15:36:29;;;;;;;13.73;6.70;;;;;;;12.09;85.34;101725.69;10450772;28;20055;-83
2021/12/31 15:41:31;;;;;;;15.82;7.10;;;;;;;11.99;86.29;101733.13;10464015;28;20087;-83
2021/12/31 15:46:33;;;;;;;15.25;7.18;;;;;;;11.97;85.75;101741.66;10457562;28;20503;-84
2021/12/31 15:51:36;;;;;;;11.13;6.20;;;;;;;11.95;86.04;101735.50;10474858;28;20123;-83
2021/12/31 15:56:38;;;;;;;12.38;6.20;;;;;;;11.81;87.43;101745.38;10438484;28;20049;-85
2021/12/31 16:01:40;;;;;;;11.68;6.43;;;;;;;11.77;87.78;101743.50;10474808;28;20072;-87
2021/12/31 16:06:43;;;;;;;10.98;6.75;;;;;;;11.77;88.03;101738.34;10462308;28;20055;-83
2021/12/31 16:11:45;;;;;;;11.75;6.93;;;;;;;11.75;88.40;101736.59;10512163;28;20052;-87
2021/12/31 16:16:46;;;;;;;14.27;8.88;;;;;;;11.78;88.09;101740.13;10482557;28;20048;-85
2021/12/31 16:21:48;;;;;;;18.75;8.10;;;;;;;11.78;87.78;101755.59;10465569;28;20037;-88
2021/12/31 16:26:50;;;;;;;11.88;6.90;;;;;;;11.85;87.00;101762.72;10483464;28;20051;-88
2021/12/31 16:31:51;;;;;;;15.65;7.85;;;;;;;11.81;87.23;101778.94;10469709;28;20094;-86
2021/12/31 16:36:53;;;;;;;11.93;7.57;;;;;;;11.80;87.66;101774.63;10465384;28;20044;-84
2021/12/31 16:41:58;;;;;;;14.20;7.38;;;;;;;11.80;87.01;101785.81;10450179;28;20072;-87
2021/12/31 16:47:00;;;;;;;13.38;6.80;;;;;;;11.82;87.09;101783.28;10491719;28;20103;-86
2021/12/31 16:52:08;;;;;;;14.40;6.60;;;;;;;11.83;87.12;101796.25;10487079;28;20145;-86
2021/12/31 16:57:10;;;;;;;11.85;7.07;;;;;;;11.85;87.00;101799.75;10473822;28;20063;-87
2021/12/31 17:02:14;;;;;;;11.45;7.15;;;;;;;11.82;87.22;101806.50;10471351;28;20047;-86
2021/12/31 17:07:16;;;;;;;14.40;7.15;;;;;;;11.87;87.07;101812.72;10491033;28;20510;-86
2021/12/31 17:12:18;;;;;;;14.65;6.72;;;;;;;11.89;86.81;101827.44;10471867;28;20048;-86
2021/12/31 17:17:19;;;;;;;13.63;7.43;;;;;;;11.88;86.92;101841.19;10488727;28;20040;-86
2021/12/31 17:22:21;;;;;;;13.00;6.70;;;;;;;11.92;86.34;101839.59;10462583;28;20407;-85
2021/12/31 17:27:23;;;;;;;12.40;6.82;;;;;;;11.95;86.25;101857.75;10467437;28;20408;-86
2021/12/31 17:32:24;;;;;;;13.38;7.38;;;;;;;11.99;86.23;101864.84;10444419;28;20052;-85
2021/12/31 17:37:26;;;;;;;13.57;6.43;;;;;;;11.98;85.65;101863.06;10465153;28;20048;-86
2021/12/31 17:42:30;;;;;;;13.48;6.63;;;;;;;11.99;85.92;101875.16;10460693;28;20179;-84
2021/12/31 17:47:31;;;;;;;17.63;6.57;;;;;;;12.00;85.96;101861.44;10484281;28;20533;-84
2021/12/31 17:52:34;;;;;;;9.75;6.63;;;;;;;11.99;85.72;101875.16;10463837;28;20049;-83
2021/12/31 17:57:35;;;;;;;11.95;6.68;;;;;;;12.03;85.72;101895.09;10458903;28;20059;-86
2021/12/31 18:02:39;;;;;;;19.90;6.88;;;;;;;12.04;85.69;101894.28;10485950;28;20041;-86
2021/12/31 18:07:41;;;;;;;17.13;7.05;;;;;;;12.05;85.38;101903.78;10462583;28;20374;-83
2021/12/31 18:12:45;;;;;;;14.70;7.20;;;;;;;12.02;85.77;101911.44;10463134;28;20087;-85
2021/12/31 18:17:50;;;;;;;16.58;6.85;;;;;;;12.01;85.80;101914.84;10462683;28;20044;-83
2021/12/31 18:22:57;;;;;;;16.77;8.52;;;;;;;11.99;85.90;101921.66;10478443;28;20051;-86
2021/12/31 18:27:59;;;;;;;21.13;8.15;;;;;;;11.93;86.33;101941.16;10494352;28;20562;-88
2021/12/31 18:33:01;;;;;;;17.80;9.90;;;;;;;11.96;86.20;101957.66;10469143;28;20136;-88
2021/12/31 18:38:13;;;;;;;19.50;8.95;;;;;;;11.95;86.37;101963.63;10465253;28;20526;-87
2021/12/31 18:43:17;;;;;;;14.70;8.70;;;;;;;11.90;86.38;101968.66;10465551;28;20020;-86
2021/12/31 18:48:19;;;;;;;16.33;8.32;;;;;;;11.93;86.21;101978.22;10506186;28;20041;-88
2021/12/31 18:53:21;;;;;;;16.05;7.93;;;;;;;11.97;85.65;101987.84;10461642;28;20041;-88
2021/12/31 18:58:25;;;;;;;15.35;8.40;;;;;;;11.89;86.62;101991.81;10451067;28;20406;-86
2021/12/31 19:03:26;;;;;;;18.50;9.32;;;;;;;11.90;86.15;102004.81;10478186;28;20037;-87
2021/12/31 19:08:30;;;;;;;13.75;8.75;;;;;;;11.92;86.34;102007.44;10455734;28;20048;-84
2021/12/31 19:13:32;;;;;;;18.13;9.88;;;;;;;11.84;86.65;102001.09;10488684;28;20533;-82
2021/12/31 19:18:35;;;;;;;16.77;10.93;;;;;;;11.81;86.85;102013.88;10456063;28;20051;-85
2021/12/31 19:23:36;;;;;;;22.05;11.40;;;;;;;11.77;87.07;102012.88;10470598;28;20510;-86
2021/12/31 19:28:39;;;;;;;21.15;12.57;;;;;;;11.71;87.57;102013.53;10459402;28;20041;-86
2021/12/31 19:33:40;;;;;;;21.52;13.00;;;;;;;11.73;87.42;102021.34;10469996;28;20044;-86
2021/12/31 19:38:42;;;;;;;27.40;13.55;;;;;;;11.71;87.61;102029.03;10449299;28;20057;-86
2021/12/31 19:43:46;;;;;;;22.30;13.65;;;;;;;11.73;87.25;102032.53;10490300;28;20041;-86
2021/12/31 19:48:48;;;;;;;27.33;14.50;;;;;;;11.73;87.36;102039.41;10472788;28;20113;-86
2021/12/31 19:53:53;;;;;;;22.83;13.90;;;;;;;11.72;87.52;102045.38;10461919;28;20135;-86
2021/12/31 19:58:54;;;;;;;30.65;14.90;;;;;;;11.78;87.38;102049.94;10474722;28;20135;-87
2021/12/31 20:03:56;;;;;;;21.92;14.82;;;;;;;11.80;87.61;102048.28;10463271;28;20405;-85
2021/12/31 20:08:58;;;;;;;24.42;14.13;;;;;;;11.79;87.51;102052.56;10492739;28;20505;-86
2021/12/31 20:14:00;;;;;;;25.52;15.55;;;;;;;11.79;87.51;102051.69;10493513;28;20041;-87
2021/12/31 20:19:02;;;;;;;29.67;15.60;;;;;;;11.78;87.78;102053.38;10494818;28;20132;-86
2021/12/31 20:24:04;;;;;;;24.52;14.82;;;;;;;11.84;87.78;102063.06;10469162;28;20518;-85
2021/12/31 20:29:07;;;;;;;23.35;14.75;;;;;;;11.83;87.70;102062.19;10476014;28;20053;-86
2021/12/31 20:34:09;;;;;;;27.60;15.25;;;;;;;11.84;87.43;102053.59;10493769;28;20037;-85
2021/12/31 20:39:11;;;;;;;27.98;14.27;;;;;;;11.86;87.40;102069.19;10494505;28;20043;-86
2021/12/31 20:44:12;;;;;;;29.10;14.93;;;;;;;11.83;87.80;102066.47;10497921;28;20403;-86
2021/12/31 20:49:14;;;;;;;31.20;15.45;;;;;;;11.87;87.57;102060.63;10470285;28;20041;-85
2021/12/31 20:54:16;;;;;;;26.58;15.55;;;;;;;11.87;87.58;102070.94;10497247;28;20036;-86
2021/12/31 20:59:19;;;;;;;24.55;14.90;;;;;;;11.88;87.70;102083.91;10486269;28;20102;-85
2021/12/31 21:04:21;;;;;;;28.60;14.52;;;;;;;11.95;86.87;102090.19;10467452;28;20068;-85
2021/12/31 21:09:23;;;;;;;24.13;14.63;;;;;;;11.92;87.25;102090.09;10479265;28;20046;-86
2021/12/31 21:14:28;;;;;;;26.65;13.95;;;;;;;11.95;87.14;102090.19;10449898;28;20458;-86
2021/12/31 21:19:30;;;;;;;27.17;12.98;;;;;;;11.98;86.50;102105.84;10475799;28;20036;-85
2021/12/31 21:24:32;;;;;;;24.15;12.45;;;;;;;11.98;86.73;102110.13;10494310;28;20098;-87
2021/12/31 21:29:34;;;;;;;26.55;12.75;;;;;;;11.96;86.93;102130.69;10456818;28;20066;-87
2021/12/31 21:34:36;;;;;;;23.67;12.13;;;;;;;11.93;87.39;102133.16;10474847;28;20066;-85
2021/12/31 21:39:37;;;;;;;27.00;13.68;;;;;;;11.98;86.65;102125.63;10489736;28;20037;-87
2021/12/31 21:44:39;;;;;;;26.85;12.63;;;;;;;11.95;86.85;102126.34;10487681;28;20036;-86
2021/12/31 21:49:41;;;;;;;27.83;12.95;;;;;;;11.98;86.93;102142.00;10469879;28;20449;-86
2021/12/31 21:55:17;;;;;;;23.55;11.93;;;;;;;11.96;86.65;102143.59;10476288;28;20052;-86
2021/12/31 22:00:19;;;;;;;23.40;11.77;;;;;;;11.97;87.38;102155.72;10468906;28;20051;-86
2021/12/31 22:05:21;;;;;;;26.98;12.82;;;;;;;11.90;87.55;102158.84;10484333;28;20586;-86
2021/12/31 22:10:23;;;;;;;23.98;12.30;;;;;;;11.89;87.51;102159.66;10461254;28;20133;-87
2021/12/31 22:15:24;;;;;;;26.17;13.25;;;;;;;11.86;87.29;102162.16;10450464;28;20052;-86
2021/12/31 22:20:28;;;;;;;27.27;12.43;;;;;;;11.86;87.51;102156.97;10472955;28;20174;-85
2021/12/31 22:25:32;;;;;;;26.42;13.48;;;;;;;11.83;87.61;102167.16;10476097;28;20056;-84
2021/12/31 22:30:34;;;;;;;23.80;12.55;;;;;;;11.83;87.64;102162.91;10477772;28;20041;-87
2021/12/31 22:35:36;;;;;;;31.27;11.77;;;;;;;11.80;87.72;102161.91;10455566;28;20051;-88
2021/12/31 22:40:38;;;;;;;28.95;12.73;;;;;;;11.83;87.55;102162.00;10465835;28;20372;-87
2021/12/31 22:45:39;;;;;;;28.73;12.57;;;;;;;11.78;87.83;102163.53;10441797;28;20058;-88
2021/12/31 22:50:41;;;;;;;30.73;13.75;;;;;;;11.83;87.29;102162.00;10431747;28;20076;-86
2021/12/31 22:55:43;;;;;;;29.55;13.13;;;;;;;11.81;87.51;102166.22;10466791;28;20549;-86
2021/12/31 23:00:44;;;;;;;30.83;14.43;;;;;;;11.82;87.61;102170.56;10458200;28;20055;-87
2021/12/31 23:05:49;;;;;;;42.78;17.90;;;;;;;11.86;87.17;102167.31;10462789;28;20053;-87
2021/12/31 23:10:51;;;;;;;37.65;17.52;;;;;;;11.79;87.47;102178.19;10452174;28;20063;-86
2021/12/31 23:15:53;;;;;;;30.30;16.85;;;;;;;11.72;87.88;102174.47;10451374;28;20051;-88
2021/12/31 23:20:55;;;;;;;36.33;16.77;;;;;;;11.76;87.40;102163.47;10472422;28;20076;-86